MMTC/TRC METAR and TAF weather

Enter ICAO airport designator
Station Type Date Time Source
MMTC METAR 2019/08/24 03:40 UTC NOAA

MMTC 240340Z 17013KT 10SM SCT020CB BKN080 BKN200 26/18 A3004 RMK 8/363 LTGICC -DZ INTMTE


Station Type Date Time Source
MMTC Decoded METAR 2019/08/24 03:40 UTC NOAA

Station name not available
Aug 23, 2019 - 11:40 PM EDT / 2019.08.24 0340 UTC
Wind: from the S (170 degrees) at 15 MPH (13 KT):0
Visibility: 10 mile(s):0
Sky conditions: mostly cloudy
Weather: Cumulonimbus clouds, lightning observed
Temperature: 78 F (26 C)
Dew Point: 64 F (18 C)
Relative Humidity: 61%
Pressure (altimeter): 30.04 in. Hg (1017 hPa)
ob: MMTC 240340Z 17013KT 10SM SCT020CB BKN080 BKN200 26/18 A3004 RMK 8/363 LTGICC -DZ INTMTE
cycle: 3

Station Type Date Time Source
MMTC TAF 2019/08/24 06:33 UTC NOAA

TAF MMTC 240528Z 2406/2506 15010KT P6SM SCT020CB BKN080
TEMPO 2406/2410 5SM -TSRA
FM241800 12012KT P6SM SCT030 SCT090 BKN220 PROB40 2423/2503 5SM -TSRA BKN025CB OVC090
FM250600 08005KT P6SM SCT025 SCT090 BKN220

Example: see airport list